createdAt,value
2022-12-29T00:01:40.270Z,78.98
2022-12-29T00:04:11.446Z,79.23
2022-12-29T00:06:41.062Z,79.00
2022-12-29T00:09:07.766Z,78.63
2022-12-29T00:11:34.459Z,77.62
2022-12-29T00:14:25.635Z,78.02
2022-12-29T00:16:52.745Z,78.43
2022-12-29T00:19:38.219Z,78.65
2022-12-29T00:22:23.137Z,78.59
2022-12-29T00:25:08.347Z,78.03
2022-12-29T00:27:53.233Z,77.78
2022-12-29T00:30:42.678Z,78.26
2022-12-29T00:33:36.426Z,77.92
2022-12-29T00:36:06.093Z,78.26
2022-12-29T00:38:55.345Z,78.27
2022-12-29T00:41:40.532Z,77.97
2022-12-29T00:44:11.131Z,78.42
2022-12-29T00:46:38.957Z,78.05
2022-12-29T00:49:25.238Z,77.39
2022-12-29T00:51:52.168Z,78.01
2022-12-29T00:54:19.173Z,77.80
2022-12-29T00:56:49.920Z,77.84
2022-12-29T00:59:17.511Z,77.91
2022-12-29T01:01:46.148Z,78.16
2022-12-29T01:04:13.249Z,78.12
2022-12-29T01:06:41.023Z,77.73
2022-12-29T01:09:27.352Z,77.99
2022-12-29T01:11:53.983Z,77.84
2022-12-29T01:14:21.342Z,77.88
2022-12-29T01:16:48.146Z,78.25
2022-12-29T01:19:17.004Z,77.04
2022-12-29T01:21:45.410Z,77.43
2022-12-29T01:24:12.972Z,77.27
2022-12-29T01:26:39.512Z,76.90
2022-12-29T01:29:06.084Z,76.96
2022-12-29T01:31:32.682Z,77.08
2022-12-29T01:33:59.288Z,76.91
2022-12-29T01:36:26.316Z,76.41
2022-12-29T01:38:53.016Z,77.16
2022-12-29T01:41:21.042Z,77.61
2022-12-29T01:43:53.157Z,76.93
2022-12-29T01:46:40.137Z,77.00
2022-12-29T01:49:23.439Z,77.46
2022-12-29T01:51:57.293Z,78.24
2022-12-29T01:54:30.490Z,78.71
2022-12-29T01:56:58.839Z,78.77
2022-12-29T01:59:29.375Z,78.71
2022-12-29T02:01:56.120Z,78.76
2022-12-29T02:04:24.916Z,78.29
2022-12-29T02:06:58.364Z,77.38
2022-12-29T02:09:25.140Z,78.52
2022-12-29T02:11:52.278Z,78.18
2022-12-29T02:14:18.890Z,78.45
2022-12-29T02:16:57.239Z,77.88
2022-12-29T02:19:45.440Z,77.16
2022-12-29T02:22:44.709Z,78.03
2022-12-29T02:25:48.857Z,76.32
2022-12-29T02:28:32.342Z,77.48
2022-12-29T02:31:14.288Z,76.97
2022-12-29T02:33:53.683Z,76.13
2022-12-29T02:36:42.576Z,76.48
2022-12-29T02:39:20.669Z,76.21
2022-12-29T02:42:06.475Z,74.64
2022-12-29T02:44:55.060Z,75.95
2022-12-29T02:47:31.667Z,75.50
2022-12-29T02:50:14.843Z,74.71
2022-12-29T02:52:49.407Z,74.43
2022-12-29T02:55:16.471Z,74.70
2022-12-29T02:57:43.136Z,74.61
2022-12-29T03:00:13.977Z,74.04
2022-12-29T03:03:16.018Z,73.63
2022-12-29T03:06:09.311Z,73.60
2022-12-29T03:08:52.944Z,72.38
2022-12-29T03:11:38.369Z,73.22
2022-12-29T03:14:38.460Z,73.21
2022-12-29T03:17:13.609Z,72.15
2022-12-29T03:19:48.671Z,72.69
2022-12-29T03:22:33.108Z,71.70
2022-12-29T03:25:37.050Z,72.38
2022-12-29T03:28:10.528Z,72.92
2022-12-29T03:30:42.976Z,72.50
2022-12-29T03:33:12.791Z,72.56
2022-12-29T03:35:42.207Z,71.62
2022-12-29T03:38:24.994Z,71.61
2022-12-29T03:40:56.452Z,72.27
2022-12-29T03:43:24.627Z,72.65
2022-12-29T03:45:51.234Z,72.19
2022-12-29T03:48:18.104Z,71.83
2022-12-29T03:50:45.694Z,71.61
2022-12-29T03:53:12.262Z,71.57
2022-12-29T03:55:39.395Z,71.25
2022-12-29T03:58:06.397Z,71.50
2022-12-29T04:00:50.872Z,71.44
2022-12-29T04:03:17.990Z,71.34
2022-12-29T04:05:45.156Z,71.26
2022-12-29T04:08:11.845Z,71.57
2022-12-29T04:10:38.604Z,71.35
2022-12-29T04:13:06.307Z,71.26
2022-12-29T04:15:34.073Z,71.15
2022-12-29T04:18:01.497Z,71.09
2022-12-29T04:20:47.479Z,71.10
2022-12-29T04:23:17.112Z,71.02
2022-12-29T04:25:48.513Z,70.50
2022-12-29T04:28:16.829Z,71.33
2022-12-29T04:30:57.307Z,71.03
2022-12-29T04:33:33.200Z,70.75
2022-12-29T04:35:59.803Z,71.34
2022-12-29T04:38:27.091Z,70.92
2022-12-29T04:40:54.242Z,70.79
2022-12-29T04:43:23.312Z,70.88
2022-12-29T04:46:13.216Z,71.18
2022-12-29T04:48:49.352Z,70.90
2022-12-29T04:51:31.370Z,71.24
2022-12-29T04:53:57.933Z,71.55
2022-12-29T04:56:25.938Z,71.11
2022-12-29T04:58:57.362Z,71.17
2022-12-29T05:01:25.301Z,70.93
2022-12-29T05:03:53.388Z,70.82
2022-12-29T05:06:26.363Z,71.00
2022-12-29T05:08:56.653Z,71.05
2022-12-29T05:11:24.133Z,70.79
2022-12-29T05:13:51.336Z,71.57
2022-12-29T05:16:20.574Z,71.08
2022-12-29T05:18:48.367Z,71.32
2022-12-29T05:21:15.095Z,71.18
2022-12-29T05:23:43.398Z,70.92
2022-12-29T05:26:09.966Z,70.71
2022-12-29T05:28:47.489Z,70.65
2022-12-29T05:31:18.395Z,70.51
2022-12-29T05:33:45.117Z,70.98
2022-12-29T05:36:12.858Z,70.49
2022-12-29T05:38:43.522Z,70.22
2022-12-29T05:41:10.563Z,70.02
2022-12-29T05:43:53.880Z,70.40
2022-12-29T05:46:39.090Z,69.66
2022-12-29T05:49:32.005Z,69.12
2022-12-29T05:52:09.694Z,69.55
2022-12-29T05:54:36.310Z,69.05
2022-12-29T05:57:08.652Z,68.79
2022-12-29T05:59:35.407Z,68.64
2022-12-29T06:02:02.561Z,69.03
2022-12-29T06:04:29.280Z,68.92
2022-12-29T06:06:56.022Z,68.92
2022-12-29T06:09:31.775Z,68.17
2022-12-29T06:11:58.383Z,68.40
2022-12-29T06:14:25.250Z,68.78
2022-12-29T06:16:51.867Z,68.21
2022-12-29T06:19:18.591Z,68.37
2022-12-29T06:21:45.186Z,68.02
2022-12-29T06:24:12.147Z,68.25
2022-12-29T06:26:38.900Z,68.59
2022-12-29T06:29:05.810Z,68.08
2022-12-29T06:31:32.983Z,68.22
2022-12-29T06:34:04.950Z,68.09
2022-12-29T06:36:34.588Z,68.03
2022-12-29T06:39:01.133Z,68.10
2022-12-29T06:41:32.204Z,67.78
2022-12-29T06:44:17.476Z,67.96
2022-12-29T06:46:51.496Z,68.04
2022-12-29T06:49:18.269Z,67.92
2022-12-29T06:51:44.931Z,67.71
2022-12-29T06:54:11.594Z,68.67
2022-12-29T06:56:38.138Z,68.33
2022-12-29T06:59:04.763Z,68.46
2022-12-29T07:01:31.375Z,68.73
2022-12-29T07:03:58.572Z,68.44
2022-12-29T07:06:25.154Z,68.41
2022-12-29T07:08:51.682Z,67.99
2022-12-29T07:11:18.241Z,68.46
2022-12-29T07:13:44.775Z,68.69
2022-12-29T07:16:11.588Z,68.12
2022-12-29T07:18:38.162Z,69.18
2022-12-29T07:21:04.896Z,69.29
2022-12-29T07:23:31.436Z,68.92
2022-12-29T07:26:02.661Z,68.75
2022-12-29T07:28:29.480Z,68.98
2022-12-29T07:30:56.097Z,68.89
2022-12-29T07:33:22.877Z,70.00
2022-12-29T07:35:49.476Z,69.71
2022-12-29T07:38:16.152Z,69.20
2022-12-29T07:40:43.175Z,69.14
2022-12-29T07:43:10.016Z,69.44
2022-12-29T07:45:43.040Z,69.16
2022-12-29T07:48:10.319Z,69.45
2022-12-29T07:50:37.264Z,69.10
2022-12-29T07:53:04.179Z,69.42
2022-12-29T07:55:30.763Z,69.56
2022-12-29T07:57:57.836Z,69.59
2022-12-29T08:00:24.738Z,69.76
2022-12-29T08:02:52.026Z,69.21
2022-12-29T08:05:18.633Z,69.84
2022-12-29T08:07:45.380Z,69.34
2022-12-29T08:10:12.496Z,69.55
2022-12-29T08:12:39.900Z,69.16
2022-12-29T08:15:07.410Z,69.23
2022-12-29T08:17:34.140Z,69.27
2022-12-29T08:20:01.427Z,69.35
2022-12-29T08:22:28.368Z,69.57
2022-12-29T08:24:55.260Z,69.36
2022-12-29T08:27:21.820Z,68.68
2022-12-29T08:29:48.584Z,69.55
2022-12-29T08:32:15.513Z,69.26
2022-12-29T08:34:42.034Z,69.04
2022-12-29T08:37:08.622Z,69.37
2022-12-29T08:39:35.603Z,68.70
2022-12-29T08:42:02.267Z,68.88
2022-12-29T08:44:28.928Z,68.82
2022-12-29T08:46:56.050Z,68.65
2022-12-29T08:49:22.764Z,68.89
2022-12-29T08:51:49.905Z,68.75
2022-12-29T08:54:25.863Z,68.50
2022-12-29T08:56:52.828Z,68.15
2022-12-29T08:59:21.340Z,68.19
2022-12-29T09:01:57.318Z,66.97
2022-12-29T09:04:24.889Z,66.75
2022-12-29T09:06:52.102Z,66.38
2022-12-29T09:09:19.380Z,66.14
2022-12-29T09:11:48.871Z,66.55
2022-12-29T09:14:15.886Z,66.83
2022-12-29T09:17:01.289Z,66.13
2022-12-29T09:19:31.797Z,65.83
2022-12-29T09:21:58.958Z,65.45
2022-12-29T09:24:26.143Z,63.92
2022-12-29T09:26:53.406Z,63.86
2022-12-29T09:29:24.489Z,63.63
2022-12-29T09:31:51.466Z,63.26
2022-12-29T09:34:18.256Z,62.75
2022-12-29T09:36:44.821Z,62.74
2022-12-29T09:39:11.372Z,63.24
2022-12-29T09:41:44.430Z,63.87
2022-12-29T09:44:24.579Z,63.58
2022-12-29T09:46:52.510Z,63.21
2022-12-29T09:49:31.105Z,63.42
2022-12-29T09:52:03.660Z,62.83
2022-12-29T09:54:58.106Z,61.46
2022-12-29T09:57:31.860Z,61.07
2022-12-29T10:00:22.598Z,61.12
2022-12-29T10:03:15.283Z,62.03
2022-12-29T10:05:53.934Z,61.88
2022-12-29T10:08:36.342Z,62.83
2022-12-29T10:11:11.796Z,62.80
2022-12-29T10:13:56.155Z,62.54
2022-12-29T10:17:00.990Z,61.36
2022-12-29T10:19:42.729Z,60.59
2022-12-29T10:22:25.667Z,61.23
2022-12-29T10:24:54.548Z,60.35
2022-12-29T10:27:21.204Z,60.70
2022-12-29T10:29:56.093Z,59.79
2022-12-29T10:32:31.237Z,60.22
2022-12-29T10:35:05.623Z,59.40
2022-12-29T10:37:46.591Z,59.22
2022-12-29T10:40:33.009Z,58.53
2022-12-29T10:42:59.620Z,58.96
2022-12-29T10:45:35.315Z,59.93
2022-12-29T10:48:09.577Z,60.31
2022-12-29T10:50:36.527Z,60.67
2022-12-29T10:53:05.913Z,60.88
2022-12-29T10:55:36.407Z,60.68
2022-12-29T10:58:07.835Z,61.21
2022-12-29T11:00:35.014Z,61.49
2022-12-29T11:03:29.106Z,61.47
2022-12-29T11:06:15.963Z,61.80
2022-12-29T11:08:49.220Z,61.61
2022-12-29T11:11:24.037Z,61.84
2022-12-29T11:13:59.431Z,62.19
2022-12-29T11:16:35.272Z,62.48
2022-12-29T11:19:02.531Z,62.84
2022-12-29T11:21:45.654Z,64.08
2022-12-29T11:24:29.509Z,63.88
2022-12-29T11:27:17.228Z,65.07
2022-12-29T11:29:45.056Z,65.02
2022-12-29T11:32:21.321Z,65.51
2022-12-29T11:34:51.019Z,66.76
2022-12-29T11:37:24.941Z,67.71
2022-12-29T11:39:55.803Z,68.13
2022-12-29T11:42:29.610Z,68.51
2022-12-29T11:44:56.122Z,68.84
2022-12-29T11:47:26.704Z,69.84
2022-12-29T11:49:55.887Z,70.36
2022-12-29T11:52:28.159Z,70.68
2022-12-29T11:54:56.024Z,71.94
2022-12-29T11:59:29.082Z,73.39
2022-12-29T12:01:56.086Z,74.38
2022-12-29T12:04:24.334Z,75.89
2022-12-29T12:07:14.799Z,76.21
2022-12-29T12:10:07.386Z,79.02
2022-12-29T12:12:40.515Z,77.73
2022-12-29T12:15:13.926Z,78.02
2022-12-29T12:18:11.451Z,78.60
2022-12-29T12:20:52.863Z,78.96
2022-12-29T12:23:39.890Z,79.37
2022-12-29T12:26:16.604Z,80.85
2022-12-29T12:28:49.678Z,80.21
2022-12-29T12:31:42.376Z,80.31
2022-12-29T12:34:14.665Z,80.74
2022-12-29T12:36:56.299Z,80.91
2022-12-29T12:39:45.267Z,81.08
2022-12-29T12:42:28.068Z,81.01
2022-12-29T12:45:28.326Z,80.60
2022-12-29T12:48:28.981Z,80.90
2022-12-29T12:51:07.972Z,81.06
2022-12-29T12:53:55.931Z,81.56
2022-12-29T12:56:59.981Z,81.73
2022-12-29T13:00:00.423Z,81.51
2022-12-29T13:02:47.543Z,81.25
2022-12-29T13:05:40.307Z,81.50
2022-12-29T13:08:44.507Z,81.53
2022-12-29T13:11:39.065Z,80.53
2022-12-29T13:14:13.811Z,81.38
2022-12-29T13:16:52.406Z,81.31
2022-12-29T13:19:27.585Z,78.74
2022-12-29T13:22:19.796Z,79.08
2022-12-29T13:25:15.175Z,77.46
2022-12-29T13:28:28.527Z,77.35
2022-12-29T13:31:02.320Z,77.88
2022-12-29T13:33:36.018Z,78.32
2022-12-29T13:36:40.077Z,78.48
2022-12-29T13:39:18.952Z,78.48
2022-12-29T13:41:53.339Z,78.67
2022-12-29T13:44:28.024Z,78.88
2022-12-29T13:46:57.801Z,78.68
2022-12-29T13:49:27.508Z,78.57
2022-12-29T13:52:14.008Z,78.88
2022-12-29T13:54:56.969Z,79.00
2022-12-29T13:58:02.572Z,79.80
2022-12-29T14:00:33.526Z,79.24
2022-12-29T14:03:13.952Z,79.63
2022-12-29T14:05:40.692Z,79.94
2022-12-29T14:08:16.945Z,79.96
2022-12-29T14:10:48.833Z,79.93
2022-12-29T14:13:18.024Z,80.34
2022-12-29T14:15:47.079Z,80.42
2022-12-29T14:18:22.785Z,80.44
2022-12-29T14:20:55.112Z,80.78
2022-12-29T14:23:30.075Z,80.63
2022-12-29T14:26:01.031Z,80.64
2022-12-29T14:28:42.000Z,80.60
2022-12-29T14:31:17.585Z,80.86
2022-12-29T14:34:17.397Z,80.70
2022-12-29T14:36:55.629Z,80.57
2022-12-29T14:39:42.234Z,80.79
2022-12-29T14:42:11.789Z,81.10
2022-12-29T14:44:52.975Z,80.89
2022-12-29T14:47:48.831Z,81.11
2022-12-29T14:50:19.165Z,81.37
2022-12-29T14:53:02.486Z,81.49
2022-12-29T14:55:47.531Z,80.93
2022-12-29T14:58:30.234Z,81.12
2022-12-29T15:00:57.828Z,80.60
2022-12-29T15:03:29.735Z,80.72
2022-12-29T15:06:03.530Z,80.85
2022-12-29T15:08:34.617Z,80.68
2022-12-29T15:11:15.455Z,80.67
2022-12-29T15:13:44.180Z,81.01
2022-12-29T15:16:31.383Z,81.08
2022-12-29T15:18:58.518Z,81.02
2022-12-29T15:21:28.317Z,81.30
2022-12-29T15:23:54.982Z,81.32
2022-12-29T15:26:24.922Z,80.96
2022-12-29T15:28:53.048Z,81.22
2022-12-29T15:31:27.934Z,81.09
2022-12-29T15:34:09.195Z,81.32
2022-12-29T15:36:39.353Z,81.21
2022-12-29T15:39:24.755Z,81.36
2022-12-29T15:42:24.442Z,81.19
2022-12-29T15:44:58.062Z,81.45
2022-12-29T15:47:35.640Z,81.31
2022-12-29T15:50:07.749Z,81.02
2022-12-29T15:52:34.799Z,81.78
2022-12-29T15:55:02.012Z,81.53
2022-12-29T15:57:31.361Z,81.49
2022-12-29T15:59:57.941Z,81.35
2022-12-29T16:02:25.241Z,81.14
2022-12-29T16:05:16.635Z,80.83
2022-12-29T16:07:42.347Z,81.15
2022-12-29T16:10:34.949Z,80.43
2022-12-29T16:13:22.739Z,79.86
2022-12-29T16:15:50.900Z,80.39
2022-12-29T16:18:29.756Z,79.49
2022-12-29T16:21:00.112Z,79.79
2022-12-29T16:23:28.968Z,78.86
2022-12-29T16:25:58.521Z,78.68
2022-12-29T16:28:33.095Z,78.96
2022-12-29T16:31:04.335Z,78.15
2022-12-29T16:33:40.239Z,78.08
2022-12-29T16:36:33.658Z,77.15
2022-12-29T16:39:26.534Z,74.88
2022-12-29T16:41:54.326Z,77.39
2022-12-29T16:44:31.558Z,76.40
2022-12-29T16:47:10.363Z,76.07
2022-12-29T16:49:38.705Z,75.64
2022-12-29T16:52:18.248Z,75.40
2022-12-29T16:54:50.210Z,74.13
2022-12-29T16:57:31.490Z,73.64
2022-12-29T17:00:01.628Z,73.54
2022-12-29T17:02:30.659Z,73.80
2022-12-29T17:04:57.715Z,74.02
2022-12-29T17:07:26.144Z,73.09
2022-12-29T17:09:54.343Z,72.99
2022-12-29T17:12:24.644Z,73.53
2022-12-29T17:15:13.706Z,70.42
2022-12-29T17:17:42.567Z,72.39
2022-12-29T17:20:18.420Z,72.31
2022-12-29T17:22:45.442Z,71.50
2022-12-29T17:25:19.302Z,70.94
2022-12-29T17:27:52.819Z,70.58
2022-12-29T17:30:29.729Z,70.88
2022-12-29T17:32:59.660Z,70.72
2022-12-29T17:35:26.291Z,70.79
2022-12-29T17:37:53.094Z,70.56
2022-12-29T17:40:30.754Z,69.23
2022-12-29T17:42:58.635Z,70.18
2022-12-29T17:45:27.322Z,70.25
2022-12-29T17:47:54.439Z,70.05
2022-12-29T17:50:23.692Z,69.75
2022-12-29T17:52:53.150Z,69.84
2022-12-29T17:55:21.772Z,70.01
2022-12-29T17:57:48.441Z,69.77
2022-12-29T18:00:23.119Z,69.94
2022-12-29T18:02:50.141Z,70.43
2022-12-29T18:05:21.270Z,70.39
2022-12-29T18:07:52.166Z,70.29
2022-12-29T18:10:19.655Z,70.45
2022-12-29T18:12:47.571Z,70.47
2022-12-29T18:15:27.699Z,70.80
2022-12-29T18:17:59.151Z,70.41
2022-12-29T18:20:25.853Z,70.42
2022-12-29T18:22:52.429Z,70.36
2022-12-29T18:25:40.553Z,70.60
2022-12-29T18:28:07.149Z,70.58
2022-12-29T18:30:33.786Z,70.31
2022-12-29T18:33:00.326Z,70.25
2022-12-29T18:35:32.618Z,70.28
2022-12-29T18:37:59.215Z,70.70
2022-12-29T18:40:25.831Z,70.33
2022-12-29T18:42:52.392Z,70.46
2022-12-29T18:45:21.735Z,70.34
2022-12-29T18:47:48.521Z,70.39
2022-12-29T18:50:15.668Z,70.64
2022-12-29T18:52:42.318Z,70.23
2022-12-29T18:55:27.035Z,70.05
2022-12-29T18:57:53.631Z,70.31
2022-12-29T19:00:21.554Z,70.16
2022-12-29T19:02:50.734Z,70.12
2022-12-29T19:05:23.496Z,70.62
2022-12-29T19:07:50.411Z,71.11
2022-12-29T19:10:17.568Z,71.06
2022-12-29T19:12:44.644Z,70.87
2022-12-29T19:15:21.619Z,71.22
2022-12-29T19:18:01.907Z,71.24
2022-12-29T19:20:38.431Z,71.16
2022-12-29T19:23:10.617Z,71.61
2022-12-29T19:25:37.470Z,71.63
2022-12-29T19:28:05.780Z,71.77
2022-12-29T19:30:33.285Z,71.79
2022-12-29T19:33:02.211Z,71.83
2022-12-29T19:35:31.869Z,72.32
2022-12-29T19:37:58.469Z,72.04
2022-12-29T19:40:25.889Z,72.43
2022-12-29T19:42:53.036Z,72.21
2022-12-29T19:45:20.536Z,72.53
2022-12-29T19:47:47.125Z,72.17
2022-12-29T19:50:16.080Z,72.19
2022-12-29T19:52:43.332Z,72.66
2022-12-29T19:55:12.336Z,72.42
2022-12-29T19:57:38.871Z,72.31
2022-12-29T20:00:05.944Z,72.39
2022-12-29T20:02:38.845Z,72.07
2022-12-29T20:05:06.681Z,72.09
2022-12-29T20:07:33.518Z,71.94
2022-12-29T20:10:00.055Z,72.20
2022-12-29T20:12:29.344Z,72.58
2022-12-29T20:14:56.683Z,72.28
2022-12-29T20:17:53.971Z,72.48
2022-12-29T20:20:10.154Z,72.27
2022-12-29T20:22:36.955Z,71.99
2022-12-29T20:25:43.023Z,72.11
2022-12-29T20:27:50.216Z,72.03
2022-12-29T20:30:16.749Z,72.13
2022-12-29T20:32:43.339Z,72.09
2022-12-29T20:35:12.334Z,72.55
2022-12-29T20:37:38.934Z,71.57
2022-12-29T20:40:05.737Z,71.37
2022-12-29T20:42:32.334Z,71.63
2022-12-29T20:44:58.851Z,71.19
2022-12-29T20:47:25.388Z,71.28
2022-12-29T20:49:51.960Z,71.10
2022-12-29T20:52:19.304Z,71.24
2022-12-29T20:54:45.843Z,70.91
2022-12-29T20:57:12.456Z,70.68
2022-12-29T20:59:39.056Z,70.96
2022-12-29T21:02:06.573Z,70.49
2022-12-29T21:04:57.423Z,70.49
2022-12-29T21:07:20.267Z,70.44
2022-12-29T21:09:47.273Z,70.05
2022-12-29T21:12:14.990Z,70.55
2022-12-29T21:14:45.623Z,70.47
2022-12-29T21:17:12.662Z,70.28
2022-12-29T21:19:39.358Z,70.34
2022-12-29T21:22:05.946Z,70.08
2022-12-29T21:24:32.800Z,69.90
2022-12-29T21:26:59.353Z,69.50
2022-12-29T21:29:26.715Z,69.26
2022-12-29T21:31:53.287Z,69.11
2022-12-29T21:34:19.907Z,69.10
2022-12-29T21:36:46.499Z,69.00
2022-12-29T21:39:13.068Z,69.05
2022-12-29T21:41:39.668Z,69.00
2022-12-29T21:44:24.727Z,69.76
2022-12-29T21:46:51.373Z,69.29
2022-12-29T21:49:18.010Z,68.90
2022-12-29T21:51:50.552Z,69.75
2022-12-29T21:54:41.332Z,69.06
2022-12-29T21:57:09.120Z,69.10
2022-12-29T21:59:54.304Z,68.75
2022-12-29T22:02:44.974Z,68.60
2022-12-29T22:05:34.538Z,68.54
2022-12-29T22:08:20.616Z,68.64
2022-12-29T22:11:06.848Z,68.87
2022-12-29T22:13:37.978Z,68.34
2022-12-29T22:16:05.158Z,69.04
2022-12-29T22:18:31.787Z,68.84
2022-12-29T22:20:58.453Z,68.40
2022-12-29T22:23:25.074Z,68.31
2022-12-29T22:25:51.729Z,68.82
2022-12-29T22:28:18.431Z,68.82
2022-12-29T22:30:45.025Z,68.44
2022-12-29T22:33:11.670Z,68.68
2022-12-29T22:35:38.249Z,68.27
2022-12-29T22:38:04.775Z,68.32
2022-12-29T22:40:31.342Z,68.29
2022-12-29T22:42:58.000Z,68.47
2022-12-29T22:45:24.568Z,68.17
2022-12-29T22:47:51.112Z,68.64
2022-12-29T22:50:17.806Z,68.44
2022-12-29T22:52:44.440Z,68.40
2022-12-29T22:55:11.325Z,68.46
2022-12-29T22:58:03.399Z,68.59
2022-12-29T23:00:29.932Z,68.70
2022-12-29T23:02:56.807Z,68.05
2022-12-29T23:05:23.488Z,67.88
2022-12-29T23:07:50.225Z,67.56
2022-12-29T23:10:17.122Z,67.33
2022-12-29T23:12:43.657Z,67.61
2022-12-29T23:15:10.670Z,67.62
2022-12-29T23:17:37.248Z,67.76
2022-12-29T23:20:06.705Z,67.25
2022-12-29T23:22:33.293Z,67.34
2022-12-29T23:25:00.037Z,67.48
2022-12-29T23:27:26.613Z,67.36
2022-12-29T23:29:53.139Z,67.37
2022-12-29T23:32:19.645Z,67.22
2022-12-29T23:34:46.237Z,67.25
2022-12-29T23:37:13.052Z,67.08
2022-12-29T23:39:39.600Z,66.71
2022-12-29T23:42:06.116Z,66.68
2022-12-29T23:44:32.794Z,66.59
2022-12-29T23:46:59.430Z,66.93
2022-12-29T23:49:26.134Z,66.73
2022-12-29T23:51:52.632Z,67.20
2022-12-29T23:54:19.231Z,66.73
2022-12-29T23:56:45.786Z,66.98
2022-12-29T23:59:12.333Z,66.76
